Time;durP1;ratioP1;P1;durP2;ratioP2;P2;SDS_P1;SDS_P2;PMS_P1;PMS_P2;Temp;Humidity;BMP_temperature;BMP_pressure;BME280_temperature;BME280_humidity;BME280_pressure;Samples;Min_cycle;Max_cycle;Signal;HPM_P1;HPM_P2
2021/08/13 00:02:10;;;;;;;;;;;25.60;49.20;;;;;;8364970;28;20375;-43
2021/08/13 00:06:12;;;;;;;;;;;25.50;49.20;;;;;;8364017;28;19960;-44
2021/08/13 00:10:13;;;;;;;;;;;25.50;49.20;;;;;;8365594;28;19922;-43
2021/08/13 00:14:13;;;;;;;;;;;25.50;49.20;;;;;;8363784;28;19924;-44
2021/08/13 00:18:14;;;;;;;;;;;25.50;49.20;;;;;;8364065;28;19951;-44
2021/08/13 00:22:14;;;;;;;;;;;25.50;49.20;;;;;;8364023;28;19917;-44
2021/08/13 00:26:15;;;;;;;;;;;25.50;49.20;;;;;;8364430;28;19921;-44
2021/08/13 00:30:15;;;;;;;;;;;25.50;49.20;;;;;;8363779;28;19917;-44
2021/08/13 00:34:16;;;;;;;;;;;25.50;49.20;;;;;;8363634;28;20334;-44
2021/08/13 00:38:16;;;;;;;;;;;25.50;49.20;;;;;;8363716;28;19917;-44
2021/08/13 00:42:17;;;;;;;;;;;25.50;49.30;;;;;;8363361;28;19939;-45
2021/08/13 00:46:17;;;;;;;;;;;25.50;49.30;;;;;;8364132;28;19990;-44
2021/08/13 00:50:18;;;;;;;;;;;25.50;49.30;;;;;;8363673;28;20365;-44
2021/08/13 00:54:19;;;;;;;;;;;25.50;49.30;;;;;;8362951;28;19924;-44
2021/08/13 00:58:20;;;;;;;;;;;25.50;49.30;;;;;;8363325;28;19913;-44
2021/08/13 01:02:21;;;;;;;;;;;25.40;49.30;;;;;;8364104;28;20361;-44
2021/08/13 01:06:21;;;;;;;;;;;25.40;49.30;;;;;;8362765;28;19917;-44
2021/08/13 01:10:24;;;;;;;;;;;25.40;49.30;;;;;;8362938;28;19920;-44
2021/08/13 01:14:40;;;;;;;;;;;25.40;49.30;;;;;;8362984;28;19921;-44
2021/08/13 01:18:44;;;;;;;;;;;25.40;49.30;;;;;;8362535;28;21375;-44
2021/08/13 01:23:03;;;;;;;;;;;25.40;49.40;;;;;;8363727;28;20330;-43
2021/08/13 01:27:11;;;;;;;;;;;25.40;49.40;;;;;;8368745;28;20285;-43
2021/08/13 01:31:15;;;;;;;;;;;25.40;49.40;;;;;;8369561;28;20290;-43
2021/08/13 01:35:18;;;;;;;;;;;25.40;49.40;;;;;;8369532;28;20453;-43
2021/08/13 01:39:19;;;;;;;;;;;25.30;49.30;;;;;;8368702;28;20370;-45
2021/08/13 01:43:21;;;;;;;;;;;25.30;49.30;;;;;;8370129;28;19917;-43
2021/08/13 01:47:21;;;;;;;;;;;25.40;49.40;;;;;;8368979;28;20358;-42
2021/08/13 01:51:22;;;;;;;;;;;25.30;49.40;;;;;;8368389;28;20008;-43
2021/08/13 01:55:23;;;;;;;;;;;25.30;49.30;;;;;;8368872;28;19916;-43
2021/08/13 01:59:24;;;;;;;;;;;25.30;49.40;;;;;;8369321;28;20003;-43
2021/08/13 02:03:24;;;;;;;;;;;25.30;49.40;;;;;;8368364;28;19916;-43
2021/08/13 02:07:25;;;;;;;;;;;25.30;49.40;;;;;;8368562;28;19928;-44
2021/08/13 02:11:26;;;;;;;;;;;25.30;49.40;;;;;;8368070;28;19924;-43
2021/08/13 02:15:26;;;;;;;;;;;25.30;49.40;;;;;;8368245;28;19912;-44
2021/08/13 02:19:37;;;;;;;;;;;25.30;49.40;;;;;;8368277;28;19912;-43
2021/08/13 02:23:38;;;;;;;;;;;25.30;49.40;;;;;;8367906;28;19921;-43
2021/08/13 02:27:39;;;;;;;;;;;25.30;49.40;;;;;;8367328;28;19917;-43
2021/08/13 02:31:39;;;;;;;;;;;25.30;49.40;;;;;;8367517;28;19931;-44
2021/08/13 02:35:43;;;;;;;;;;;25.20;49.40;;;;;;8367872;28;19913;-43
2021/08/13 02:39:43;;;;;;;;;;;25.30;49.40;;;;;;8366858;28;19917;-43
2021/08/13 02:43:49;;;;;;;;;;;25.30;49.50;;;;;;8367354;28;19917;-43
2021/08/13 02:47:54;;;;;;;;;;;25.20;49.40;;;;;;8366690;28;19924;-43
2021/08/13 02:51:57;;;;;;;;;;;25.20;49.40;;;;;;8367498;28;19921;-43
2021/08/13 02:56:02;;;;;;;;;;;25.20;49.40;;;;;;8367815;28;19917;-43
2021/08/13 03:00:04;;;;;;;;;;;25.20;49.90;;;;;;8366186;28;19924;-43
2021/08/13 03:04:07;;;;;;;;;;;25.20;49.40;;;;;;8366524;28;19924;-43
2021/08/13 03:08:07;;;;;;;;;;;25.20;49.40;;;;;;8366843;28;19924;-43
2021/08/13 03:12:09;;;;;;;;;;;25.20;49.40;;;;;;8366457;28;20015;-43
2021/08/13 03:16:10;;;;;;;;;;;25.20;49.50;;;;;;8366410;28;19939;-44
2021/08/13 03:20:11;;;;;;;;;;;25.20;49.50;;;;;;8366151;28;19917;-43
2021/08/13 03:24:12;;;;;;;;;;;25.20;49.50;;;;;;8365581;28;19921;-43
2021/08/13 03:28:13;;;;;;;;;;;25.20;49.40;;;;;;8366775;28;19913;-44
2021/08/13 03:32:13;;;;;;;;;;;25.20;49.50;;;;;;8365669;28;19925;-45
2021/08/13 03:36:14;;;;;;;;;;;25.20;49.50;;;;;;8365158;28;19921;-44
2021/08/13 03:40:14;;;;;;;;;;;25.20;49.50;;;;;;8365465;28;20340;-43
2021/08/13 03:44:15;;;;;;;;;;;25.10;49.40;;;;;;8365167;28;20378;-43
2021/08/13 03:48:15;;;;;;;;;;;25.10;49.40;;;;;;8364765;28;20381;-43
2021/08/13 03:52:15;;;;;;;;;;;25.10;49.40;;;;;;8364832;28;19925;-43
2021/08/13 03:56:16;;;;;;;;;;;25.10;49.40;;;;;;8365060;28;19916;-44
2021/08/13 04:00:16;;;;;;;;;;;25.10;49.40;;;;;;8364299;28;19970;-44
2021/08/13 04:04:17;;;;;;;;;;;25.10;49.50;;;;;;8365534;28;19917;-44
2021/08/13 04:08:17;;;;;;;;;;;25.10;49.50;;;;;;8364834;28;19977;-44
2021/08/13 04:12:18;;;;;;;;;;;25.10;49.40;;;;;;8363833;28;19925;-44
2021/08/13 04:16:20;;;;;;;;;;;25.10;49.50;;;;;;8364607;28;19916;-44
2021/08/13 04:20:20;;;;;;;;;;;25.10;49.50;;;;;;8364256;28;20388;-43
2021/08/13 04:24:21;;;;;;;;;;;25.10;49.50;;;;;;8364162;28;19933;-43
2021/08/13 04:28:21;;;;;;;;;;;25.10;49.50;;;;;;8364097;28;19971;-44
2021/08/13 04:32:22;;;;;;;;;;;25.10;49.50;;;;;;8364043;28;19979;-43
2021/08/13 04:36:22;;;;;;;;;;;25.00;49.40;;;;;;8363411;28;19920;-43
2021/08/13 04:40:23;;;;;;;;;;;25.00;49.50;;;;;;8364454;28;19913;-43
2021/08/13 04:44:23;;;;;;;;;;;25.00;49.50;;;;;;8363768;28;19923;-43
2021/08/13 04:48:24;;;;;;;;;;;25.10;49.50;;;;;;8363419;28;20000;-43
2021/08/13 04:52:24;;;;;;;;;;;25.00;49.50;;;;;;8363351;28;20010;-44
2021/08/13 04:56:25;;;;;;;;;;;25.00;49.50;;;;;;8364172;28;19924;-44
2021/08/13 05:00:25;;;;;;;;;;;25.00;49.50;;;;;;8362770;28;19924;-44
2021/08/13 05:04:25;;;;;;;;;;;25.00;49.50;;;;;;8363244;28;20305;-44
2021/08/13 05:08:26;;;;;;;;;;;25.00;49.50;;;;;;8363835;28;20350;-44
2021/08/13 05:12:26;;;;;;;;;;;25.00;49.50;;;;;;8362711;28;19921;-43
2021/08/13 05:16:27;;;;;;;;;;;25.00;49.50;;;;;;8363774;28;19913;-43
2021/08/13 05:20:27;;;;;;;;;;;25.00;49.50;;;;;;8363045;28;19964;-43
2021/08/13 05:24:28;;;;;;;;;;;25.00;49.50;;;;;;8362530;28;20340;-43
2021/08/13 05:28:28;;;;;;;;;;;25.00;49.50;;;;;;8362986;28;19916;-44
2021/08/13 05:32:29;;;;;;;;;;;25.00;49.50;;;;;;8363410;28;19928;-44
2021/08/13 05:36:29;;;;;;;;;;;25.00;49.60;;;;;;8362370;28;19917;-44
2021/08/13 05:40:30;;;;;;;;;;;25.00;49.50;;;;;;8362602;28;20449;-44
2021/08/13 05:44:30;;;;;;;;;;;25.00;49.60;;;;;;8362563;28;20774;-45
2021/08/13 05:48:31;;;;;;;;;;;25.00;49.60;;;;;;8362967;28;19951;-44
2021/08/13 05:52:31;;;;;;;;;;;25.00;49.50;;;;;;8362563;28;20325;-44
2021/08/13 05:56:32;;;;;;;;;;;25.00;49.60;;;;;;8362315;28;19924;-46
2021/08/13 06:00:32;;;;;;;;;;;25.00;49.50;;;;;;8361952;28;19924;-46
2021/08/13 06:04:33;;;;;;;;;;;25.00;49.50;;;;;;8362438;28;19913;-43
2021/08/13 06:08:33;;;;;;;;;;;25.00;49.60;;;;;;8363182;28;19927;-44
2021/08/13 06:12:33;;;;;;;;;;;25.00;49.50;;;;;;8366392;28;19925;-44
2021/08/13 06:16:34;;;;;;;;;;;25.00;49.50;;;;;;8368042;28;19917;-43
2021/08/13 06:20:34;;;;;;;;;;;25.00;49.50;;;;;;8368097;28;20350;-43
2021/08/13 06:24:35;;;;;;;;;;;25.00;49.50;;;;;;8368091;28;19938;-43
2021/08/13 06:28:35;;;;;;;;;;;25.00;49.50;;;;;;8367295;28;19970;-43
2021/08/13 06:32:36;;;;;;;;;;;25.00;49.50;;;;;;8367084;28;19986;-46
2021/08/13 06:36:36;;;;;;;;;;;25.00;49.50;;;;;;8366866;28;19963;-43
2021/08/13 06:40:37;;;;;;;;;;;25.00;49.50;;;;;;8368113;28;19967;-43
2021/08/13 06:44:37;;;;;;;;;;;25.00;49.50;;;;;;8367381;28;19925;-43
2021/08/13 06:48:38;;;;;;;;;;;25.00;49.50;;;;;;8366671;28;20011;-43
2021/08/13 06:52:38;;;;;;;;;;;25.00;49.50;;;;;;8367035;28;19932;-44
2021/08/13 06:56:38;;;;;;;;;;;25.00;49.50;;;;;;8367272;28;20392;-43
2021/08/13 07:00:39;;;;;;;;;;;25.00;49.50;;;;;;8367095;28;19917;-43
2021/08/13 07:04:39;;;;;;;;;;;25.00;49.40;;;;;;8366697;28;19917;-44
2021/08/13 07:08:40;;;;;;;;;;;25.10;49.40;;;;;;8366481;28;20011;-43
2021/08/13 07:12:41;;;;;;;;;;;25.10;49.40;;;;;;8365609;28;19925;-43
2021/08/13 07:16:41;;;;;;;;;;;25.10;49.20;;;;;;8367105;28;19913;-44
2021/08/13 07:20:41;;;;;;;;;;;25.20;49.20;;;;;;8365651;28;19951;-43
2021/08/13 07:24:42;;;;;;;;;;;25.20;49.00;;;;;;8364586;28;19924;-44
2021/08/13 07:28:42;;;;;;;;;;;25.20;49.10;;;;;;8365838;28;20012;-44
2021/08/13 07:32:45;;;;;;;;;;;25.20;49.10;;;;;;8366067;28;19928;-43
2021/08/13 07:36:45;;;;;;;;;;;25.20;49.20;;;;;;8365534;28;19917;-44
2021/08/13 07:40:46;;;;;;;;;;;25.20;49.20;;;;;;8365259;28;19938;-44
2021/08/13 07:44:46;;;;;;;;;;;25.10;49.20;;;;;;8365318;28;19917;-44
2021/08/13 07:48:46;;;;;;;;;;;25.10;49.20;;;;;;8364783;28;19936;-43
2021/08/13 07:52:47;;;;;;;;;;;25.10;49.30;;;;;;8365569;28;19921;-44
2021/08/13 07:56:47;;;;;;;;;;;25.10;49.30;;;;;;8365044;28;19921;-44
2021/08/13 08:00:48;;;;;;;;;;;25.10;49.30;;;;;;8364606;28;20058;-44
2021/08/13 08:04:48;;;;;;;;;;;25.10;49.30;;;;;;8364805;28;19966;-43
2021/08/13 08:08:49;;;;;;;;;;;25.10;49.30;;;;;;8365092;28;19928;-44
2021/08/13 08:12:49;;;;;;;;;;;25.10;49.30;;;;;;8364136;28;19925;-44
2021/08/13 08:16:50;;;;;;;;;;;25.10;49.30;;;;;;8364189;28;19971;-44
2021/08/13 08:20:50;;;;;;;;;;;25.10;49.30;;;;;;8363918;28;19916;-44
2021/08/13 08:24:51;;;;;;;;;;;25.20;49.30;;;;;;8364319;28;20397;-48
2021/08/13 08:28:52;;;;;;;;;;;25.20;49.30;;;;;;8364871;28;19947;-44
2021/08/13 08:32:52;;;;;;;;;;;25.20;49.40;;;;;;8363144;28;19951;-45
2021/08/13 08:36:53;;;;;;;;;;;25.20;49.40;;;;;;8364218;28;20263;-44
2021/08/13 08:40:53;;;;;;;;;;;25.20;49.40;;;;;;8363773;28;19921;-44
2021/08/13 08:44:54;;;;;;;;;;;25.20;49.40;;;;;;8363937;28;19982;-45
2021/08/13 08:48:55;;;;;;;;;;;25.20;49.90;;;;;;8363761;28;19917;-45
2021/08/13 08:52:57;;;;;;;;;;;25.20;49.50;;;;;;8363212;28;19925;-45
2021/08/13 08:56:58;;;;;;;;;;;25.20;49.40;;;;;;8362897;28;19948;-45
2021/08/13 09:00:59;;;;;;;;;;;25.20;49.40;;;;;;8363953;28;19991;-46
2021/08/13 09:05:00;;;;;;;;;;;25.20;49.40;;;;;;8363366;28;19917;-44
2021/08/13 09:09:03;;;;;;;;;;;25.20;49.40;;;;;;8363155;28;19925;-45
2021/08/13 09:13:04;;;;;;;;;;;25.20;49.40;;;;;;8363379;28;20390;-45
2021/08/13 09:17:04;;;;;;;;;;;25.20;49.40;;;;;;8363361;28;20439;-45
2021/08/13 09:21:05;;;;;;;;;;;25.30;49.50;;;;;;8363462;28;19913;-45
2021/08/13 09:25:07;;;;;;;;;;;25.20;49.40;;;;;;8363203;28;19917;-44
2021/08/13 09:29:07;;;;;;;;;;;25.30;49.50;;;;;;8363208;28;19923;-46
2021/08/13 09:33:08;;;;;;;;;;;25.20;49.40;;;;;;8362247;28;19925;-45
2021/08/13 09:37:15;;;;;;;;;;;25.30;49.50;;;;;;8363802;28;19917;-44
2021/08/13 09:41:17;;;;;;;;;;;25.30;49.50;;;;;;8362771;28;19921;-48
2021/08/13 09:45:18;;;;;;;;;;;25.30;49.40;;;;;;8363838;28;19992;-44
2021/08/13 09:49:18;;;;;;;;;;;25.30;49.50;;;;;;8368906;28;19921;-46
2021/08/13 09:53:19;;;;;;;;;;;25.40;49.50;;;;;;8368785;28;19975;-45
2021/08/13 09:57:19;;;;;;;;;;;25.40;49.40;;;;;;8369150;28;20054;-44
2021/08/13 10:01:36;;;;;;;;;;;25.40;49.50;;;;;;8368576;28;20381;-44
2021/08/13 10:05:36;;;;;;;;;;;25.40;49.40;;;;;;8368406;28;20366;-45
2021/08/13 10:09:37;;;;;;;;;;;25.40;49.90;;;;;;8368456;28;19928;-44
2021/08/13 10:13:42;;;;;;;;;;;25.40;49.50;;;;;;8369204;28;20431;-45
2021/08/13 10:17:42;;;;;;;;;;;25.50;49.50;;;;;;8368114;28;19917;-44
2021/08/13 10:21:43;;;;;;;;;;;25.50;49.50;;;;;;8367789;28;19959;-46
2021/08/13 10:25:43;;;;;;;;;;;25.50;49.50;;;;;;8368110;28;20329;-45
2021/08/13 10:29:47;;;;;;;;;;;25.50;49.40;;;;;;8367518;28;19983;-46
2021/08/13 10:33:49;;;;;;;;;;;25.60;49.40;;;;;;8368359;28;19924;-44
2021/08/13 10:37:49;;;;;;;;;;;25.50;49.40;;;;;;8367438;28;19979;-45
2021/08/13 10:41:52;;;;;;;;;;;25.60;49.40;;;;;;8367593;28;19916;-44
2021/08/13 10:45:53;;;;;;;;;;;25.60;49.40;;;;;;8366943;28;20003;-44
2021/08/13 10:49:54;;;;;;;;;;;25.60;49.40;;;;;;8367812;28;20309;-45
2021/08/13 10:54:08;;;;;;;;;;;25.60;49.40;;;;;;8366563;28;19931;-44
2021/08/13 10:58:09;;;;;;;;;;;25.60;49.40;;;;;;8366978;28;19920;-47
2021/08/13 11:02:14;;;;;;;;;;;25.70;49.40;;;;;;8366281;28;20424;-44
2021/08/13 11:06:14;;;;;;;;;;;25.70;49.50;;;;;;8365996;28;19917;-45
2021/08/13 11:10:34;;;;;;;;;;;25.70;49.40;;;;;;8367191;28;19935;-45
2021/08/13 11:14:48;;;;;;;;;;;25.70;49.50;;;;;;8366224;28;19924;-46
2021/08/13 11:18:54;;;;;;;;;;;25.70;49.40;;;;;;8365827;28;19948;-44
2021/08/13 11:23:00;;;;;;;;;;;25.70;49.60;;;;;;8365962;28;19917;-45
2021/08/13 11:27:00;;;;;;;;;;;25.70;49.60;;;;;;8365458;28;19921;-46
2021/08/13 11:31:01;;;;;;;;;;;25.80;49.70;;;;;;8366516;28;19940;-44
2021/08/13 11:35:08;;;;;;;;;;;25.80;49.60;;;;;;8349279;28;20374;-48
2021/08/13 11:39:08;;;;;;;;;;;25.80;49.70;;;;;;8318883;28;19960;-45
2021/08/13 11:43:09;;;;;;;;;;;25.90;49.80;;;;;;8339216;28;19916;-45
2021/08/13 11:47:16;;;;;;;;;;;25.90;49.70;;;;;;8346515;28;19917;-45
2021/08/13 11:51:16;;;;;;;;;;;25.90;49.80;;;;;;8360457;28;19917;-44
2021/08/13 11:55:21;;;;;;;;;;;25.90;49.50;;;;;;8364932;28;19925;-45
2021/08/13 11:59:22;;;;;;;;;;;25.90;49.60;;;;;;8364935;28;19920;-46
2021/08/13 12:03:23;;;;;;;;;;;26.00;49.70;;;;;;8364575;28;20343;-47
2021/08/13 12:07:23;;;;;;;;;;;26.00;49.70;;;;;;8365278;28;19920;-44
2021/08/13 12:11:24;;;;;;;;;;;26.00;49.60;;;;;;8364800;28;19917;-44
2021/08/13 12:15:25;;;;;;;;;;;26.00;49.60;;;;;;8363999;28;19925;-44
2021/08/13 12:19:26;;;;;;;;;;;26.00;49.50;;;;;;8364426;28;20396;-46
2021/08/13 12:23:26;;;;;;;;;;;26.00;49.40;;;;;;8365249;28;19916;-44
2021/08/13 12:27:28;;;;;;;;;;;26.00;49.60;;;;;;8363716;28;20000;-44
2021/08/13 12:31:28;;;;;;;;;;;26.10;49.60;;;;;;8364082;28;20455;-46
2021/08/13 12:35:39;;;;;;;;;;;26.10;49.70;;;;;;8363811;28;20017;-44
2021/08/13 12:39:44;;;;;;;;;;;26.20;49.60;;;;;;8363505;28;20373;-43
2021/08/13 12:43:44;;;;;;;;;;;26.20;49.40;;;;;;8364691;28;20294;-45
2021/08/13 12:47:46;;;;;;;;;;;26.20;49.50;;;;;;8363498;28;19917;-43
2021/08/13 12:51:47;;;;;;;;;;;26.20;49.40;;;;;;8363103;28;19917;-44
2021/08/13 12:55:48;;;;;;;;;;;26.20;50.00;;;;;;8364035;28;19925;-44
2021/08/13 12:59:58;;;;;;;;;;;26.20;49.30;;;;;;8363373;28;19917;-44
2021/08/13 13:04:05;;;;;;;;;;;26.20;49.30;;;;;;8362672;28;19927;-44
2021/08/13 13:08:07;;;;;;;;;;;26.20;49.20;;;;;;8363676;28;19927;-45
2021/08/13 13:12:16;;;;;;;;;;;26.20;49.20;;;;;;8356673;28;19924;-46
2021/08/13 13:16:17;;;;;;;;;;;26.20;49.20;;;;;;8363488;28;22102;-44
2021/08/13 13:20:18;;;;;;;;;;;26.30;49.30;;;;;;8365394;28;19956;-45
2021/08/13 13:24:20;;;;;;;;;;;26.30;49.30;;;;;;8369554;28;20394;-45
2021/08/13 13:28:30;;;;;;;;;;;26.30;49.20;;;;;;8369733;28;19920;-46
2021/08/13 13:32:30;;;;;;;;;;;26.30;49.10;;;;;;8369712;28;19925;-44
2021/08/13 13:36:32;;;;;;;;;;;26.40;49.20;;;;;;8369569;28;19921;-44
2021/08/13 13:40:34;;;;;;;;;;;26.40;49.10;;;;;;8369385;28;19923;-44
2021/08/13 13:44:34;;;;;;;;;;;26.40;49.10;;;;;;8368990;28;19924;-44
2021/08/13 13:48:35;;;;;;;;;;;26.40;49.00;;;;;;8368814;28;20389;-45
2021/08/13 13:52:35;;;;;;;;;;;26.40;49.00;;;;;;8368706;28;20274;-44
2021/08/13 13:56:36;;;;;;;;;;;26.40;49.10;;;;;;8369807;28;20047;-43
2021/08/13 14:00:37;;;;;;;;;;;26.40;49.60;;;;;;8368238;28;19948;-44
2021/08/13 14:04:37;;;;;;;;;;;26.40;49.10;;;;;;8368529;28;20067;-43
2021/08/13 14:08:38;;;;;;;;;;;26.50;49.10;;;;;;8368891;28;19924;-44
2021/08/13 14:12:38;;;;;;;;;;;26.50;49.20;;;;;;8368505;28;20003;-44
2021/08/13 14:16:39;;;;;;;;;;;26.50;49.10;;;;;;8368296;28;19928;-44
2021/08/13 14:20:39;;;;;;;;;;;26.50;49.00;;;;;;8368026;28;19920;-43
2021/08/13 14:24:40;;;;;;;;;;;26.50;49.10;;;;;;8367418;28;19973;-44
2021/08/13 14:28:40;;;;;;;;;;;26.50;49.00;;;;;;8368454;28;19988;-44
2021/08/13 14:32:41;;;;;;;;;;;26.50;49.10;;;;;;8367219;28;20328;-44
2021/08/13 14:36:41;;;;;;;;;;;26.50;49.10;;;;;;8367299;28;20008;-44
2021/08/13 14:40:43;;;;;;;;;;;26.50;49.00;;;;;;8367849;28;19971;-44
2021/08/13 14:44:44;;;;;;;;;;;26.50;49.00;;;;;;8367326;28;20392;-44
2021/08/13 14:48:44;;;;;;;;;;;26.50;49.00;;;;;;8367540;28;20003;-43
2021/08/13 14:52:45;;;;;;;;;;;26.50;49.00;;;;;;8367270;28;19925;-44
2021/08/13 14:56:45;;;;;;;;;;;26.50;48.90;;;;;;8366935;28;19963;-45
2021/08/13 15:00:46;;;;;;;;;;;26.60;49.00;;;;;;8366384;28;20073;-44
2021/08/13 15:04:46;;;;;;;;;;;26.60;49.00;;;;;;8367478;28;19913;-44
2021/08/13 15:08:47;;;;;;;;;;;26.60;49.00;;;;;;8366833;28;19967;-43
2021/08/13 15:12:47;;;;;;;;;;;26.60;49.00;;;;;;8366419;28;20275;-45
2021/08/13 15:16:47;;;;;;;;;;;26.60;49.00;;;;;;8366544;28;20379;-43
2021/08/13 15:20:48;;;;;;;;;;;26.60;49.50;;;;;;8366403;28;19999;-45
2021/08/13 15:24:48;;;;;;;;;;;26.60;48.90;;;;;;8366512;28;20290;-44
2021/08/13 15:28:49;;;;;;;;;;;26.60;49.00;;;;;;8366006;28;20027;-45
2021/08/13 15:32:49;;;;;;;;;;;26.70;49.00;;;;;;8365439;28;20289;-46
2021/08/13 15:36:50;;;;;;;;;;;26.70;48.90;;;;;;8365736;28;20376;-45
2021/08/13 15:40:50;;;;;;;;;;;26.70;48.90;;;;;;8366264;28;20000;-44
2021/08/13 15:44:51;;;;;;;;;;;26.60;48.90;;;;;;8364375;28;19939;-44
2021/08/13 15:48:51;;;;;;;;;;;26.70;48.90;;;;;;8365490;28;19917;-43
2021/08/13 15:52:52;;;;;;;;;;;26.60;49.40;;;;;;8365426;28;20429;-43
2021/08/13 15:56:54;;;;;;;;;;;26.70;48.90;;;;;;8365423;28;19921;-46
2021/08/13 16:00:55;;;;;;;;;;;26.70;48.80;;;;;;8365270;28;19916;-43
2021/08/13 16:04:55;;;;;;;;;;;26.70;48.90;;;;;;8365023;28;19970;-45
2021/08/13 16:08:56;;;;;;;;;;;26.70;48.90;;;;;;8364928;28;19966;-44
2021/08/13 16:12:56;;;;;;;;;;;26.70;48.80;;;;;;8364473;28;19925;-43
2021/08/13 16:16:57;;;;;;;;;;;26.70;48.90;;;;;;8365236;28;20313;-43
2021/08/13 16:21:03;;;;;;;;;;;26.70;48.90;;;;;;8364220;28;20293;-43
2021/08/13 16:25:04;;;;;;;;;;;26.70;48.80;;;;;;8364542;28;19917;-43
2021/08/13 16:29:05;;;;;;;;;;;26.70;48.90;;;;;;8364222;28;19921;-43
2021/08/13 16:33:05;;;;;;;;;;;26.70;48.80;;;;;;8364354;28;19925;-44
2021/08/13 16:37:06;;;;;;;;;;;26.80;48.90;;;;;;8364016;28;19918;-44
2021/08/13 16:41:06;;;;;;;;;;;26.70;48.80;;;;;;8364003;28;19923;-44
2021/08/13 16:45:07;;;;;;;;;;;26.70;48.80;;;;;;8363484;28;20262;-44
2021/08/13 16:49:07;;;;;;;;;;;26.70;48.80;;;;;;8364729;28;20293;-45
2021/08/13 16:53:08;;;;;;;;;;;26.70;48.80;;;;;;8363749;28;19971;-43
2021/08/13 16:57:08;;;;;;;;;;;26.70;48.80;;;;;;8362899;28;19917;-43
2021/08/13 17:01:09;;;;;;;;;;;26.80;48.80;;;;;;8363345;28;19921;-44
2021/08/13 17:05:10;;;;;;;;;;;26.70;48.80;;;;;;8363583;28;20300;-43
2021/08/13 17:09:10;;;;;;;;;;;26.70;48.80;;;;;;8364082;28;20336;-44
2021/08/13 17:13:11;;;;;;;;;;;26.70;48.80;;;;;;8363208;28;19950;-44
2021/08/13 17:17:11;;;;;;;;;;;26.70;48.80;;;;;;8363246;28;19963;-43
2021/08/13 17:21:12;;;;;;;;;;;26.70;48.80;;;;;;8362563;28;19924;-43
2021/08/13 17:25:13;;;;;;;;;;;26.70;48.80;;;;;;8363927;28;19924;-44
2021/08/13 17:29:13;;;;;;;;;;;26.80;48.80;;;;;;8363005;28;19923;-43
2021/08/13 17:33:14;;;;;;;;;;;26.80;48.90;;;;;;8362501;28;19940;-43
2021/08/13 17:37:14;;;;;;;;;;;26.80;48.90;;;;;;8362817;28;19917;-44
2021/08/13 17:41:15;;;;;;;;;;;26.70;48.90;;;;;;8363147;28;20451;-44
2021/08/13 17:45:15;;;;;;;;;;;26.80;48.90;;;;;;8362786;28;20301;-43
2021/08/13 17:49:16;;;;;;;;;;;26.70;48.80;;;;;;8362898;28;19995;-43
2021/08/13 17:53:16;;;;;;;;;;;26.80;48.90;;;;;;8362561;28;19925;-45
2021/08/13 17:57:17;;;;;;;;;;;26.70;48.90;;;;;;8362034;28;19921;-43
2021/08/13 18:01:19;;;;;;;;;;;26.80;48.90;;;;;;8363267;28;19920;-43
2021/08/13 18:05:19;;;;;;;;;;;26.80;48.90;;;;;;8362396;28;19921;-43
2021/08/13 18:09:20;;;;;;;;;;;26.80;48.90;;;;;;8368532;28;19975;-44
2021/08/13 18:13:20;;;;;;;;;;;26.80;48.90;;;;;;8368161;28;19995;-44
2021/08/13 18:17:21;;;;;;;;;;;26.80;48.90;;;;;;8369021;28;20293;-44
2021/08/13 18:21:21;;;;;;;;;;;26.80;48.90;;;;;;8367711;28;19916;-43
2021/08/13 18:25:22;;;;;;;;;;;26.80;49.00;;;;;;8368077;28;19917;-43
2021/08/13 18:29:22;;;;;;;;;;;26.70;49.00;;;;;;8367801;28;19962;-44
2021/08/13 18:33:23;;;;;;;;;;;26.80;49.20;;;;;;8367475;28;20340;-43
2021/08/13 18:37:23;;;;;;;;;;;26.80;49.20;;;;;;8368442;28;19970;-44
2021/08/13 18:41:24;;;;;;;;;;;26.80;49.30;;;;;;8367397;28;19921;-43
2021/08/13 18:45:24;;;;;;;;;;;26.80;49.30;;;;;;8366975;28;20318;-43
2021/08/13 18:49:25;;;;;;;;;;;26.80;49.40;;;;;;8367303;28;19924;-43
2021/08/13 18:53:25;;;;;;;;;;;26.80;49.40;;;;;;8367780;28;19948;-43
2021/08/13 18:57:26;;;;;;;;;;;26.80;49.70;;;;;;8366668;28;19940;-42
2021/08/13 19:01:26;;;;;;;;;;;26.80;50.00;;;;;;8367009;28;19916;-43
2021/08/13 19:05:27;;;;;;;;;;;26.70;50.00;;;;;;8366643;28;19925;-43
2021/08/13 19:09:27;;;;;;;;;;;26.70;50.00;;;;;;8367445;28;19921;-43
2021/08/13 19:13:31;;;;;;;;;;;26.70;50.30;;;;;;8366384;28;20285;-43
2021/08/13 19:17:31;;;;;;;;;;;26.70;50.40;;;;;;8366407;28;20417;-44
2021/08/13 19:21:32;;;;;;;;;;;26.70;50.40;;;;;;8365917;28;19917;-45
2021/08/13 19:25:32;;;;;;;;;;;26.70;50.90;;;;;;8366077;28;19924;-43
2021/08/13 19:29:33;;;;;;;;;;;26.70;50.90;;;;;;8366744;28;19924;-43
2021/08/13 19:33:33;;;;;;;;;;;26.70;50.70;;;;;;8365426;28;19924;-43
2021/08/13 19:37:34;;;;;;;;;;;26.60;50.30;;;;;;8365764;28;20278;-44
2021/08/13 19:41:34;;;;;;;;;;;26.60;50.30;;;;;;8365712;28;19917;-44
2021/08/13 19:45:35;;;;;;;;;;;26.60;50.20;;;;;;8365995;28;19913;-43
2021/08/13 19:49:36;;;;;;;;;;;26.60;50.10;;;;;;8365609;28;19917;-43
2021/08/13 19:53:37;;;;;;;;;;;26.60;50.00;;;;;;8365418;28;19932;-43
2021/08/13 19:57:38;;;;;;;;;;;26.50;49.80;;;;;;8364744;28;20018;-43
2021/08/13 20:01:38;;;;;;;;;;;26.50;49.70;;;;;;8365408;28;19972;-44
2021/08/13 20:05:39;;;;;;;;;;;26.50;49.70;;;;;;8365155;28;19927;-44
2021/08/13 20:09:39;;;;;;;;;;;26.50;49.70;;;;;;8364663;28;19925;-43
2021/08/13 20:13:39;;;;;;;;;;;26.50;49.70;;;;;;8364562;28;20015;-44
2021/08/13 20:17:40;;;;;;;;;;;26.50;49.70;;;;;;8364363;28;19928;-43
2021/08/13 20:21:42;;;;;;;;;;;26.50;49.60;;;;;;8363963;28;21305;-43
2021/08/13 20:25:43;;;;;;;;;;;26.50;49.50;;;;;;8364064;28;19917;-43
2021/08/13 20:29:43;;;;;;;;;;;26.50;49.50;;;;;;8363645;28;19967;-43
2021/08/13 20:33:48;;;;;;;;;;;26.50;49.50;;;;;;8363551;28;19932;-44
2021/08/13 20:37:48;;;;;;;;;;;26.50;49.40;;;;;;8364772;28;19999;-44
2021/08/13 20:41:49;;;;;;;;;;;26.60;49.40;;;;;;8363177;28;20416;-44
2021/08/13 20:45:50;;;;;;;;;;;26.60;49.40;;;;;;8362362;28;19927;-44
2021/08/13 20:49:50;;;;;;;;;;;26.60;49.40;;;;;;8363553;28;20384;-44
2021/08/13 20:53:51;;;;;;;;;;;26.60;49.40;;;;;;8363071;28;20397;-44
2021/08/13 20:57:51;;;;;;;;;;;26.50;49.30;;;;;;8364068;28;19928;-44
2021/08/13 21:01:52;;;;;;;;;;;26.60;49.40;;;;;;8363572;28;19963;-43
2021/08/13 21:05:52;;;;;;;;;;;26.50;49.30;;;;;;8362807;28;19924;-43
2021/08/13 21:09:53;;;;;;;;;;;26.50;49.30;;;;;;8363540;28;19920;-45
2021/08/13 21:13:53;;;;;;;;;;;26.60;49.30;;;;;;8364004;28;20408;-44
2021/08/13 21:17:53;;;;;;;;;;;26.50;49.30;;;;;;8362795;28;19916;-45
2021/08/13 21:21:54;;;;;;;;;;;26.50;49.30;;;;;;8362989;28;19917;-43
2021/08/13 21:25:54;;;;;;;;;;;26.50;49.20;;;;;;8363444;28;20004;-44
2021/08/13 21:29:55;;;;;;;;;;;26.60;49.30;;;;;;8363302;28;19970;-45
2021/08/13 21:33:56;;;;;;;;;;;26.50;49.20;;;;;;8362801;28;19955;-45
2021/08/13 21:37:57;;;;;;;;;;;26.60;49.30;;;;;;8362974;28;19917;-45
2021/08/13 21:41:57;;;;;;;;;;;26.60;49.30;;;;;;8364976;28;19917;-44
2021/08/13 21:45:58;;;;;;;;;;;26.50;49.20;;;;;;8369169;28;19924;-45
2021/08/13 21:49:58;;;;;;;;;;;26.50;49.20;;;;;;8369854;28;20281;-46
2021/08/13 21:53:59;;;;;;;;;;;26.60;49.20;;;;;;8368318;28;20387;-44
2021/08/13 21:57:59;;;;;;;;;;;26.60;49.20;;;;;;8369131;28;19921;-44
2021/08/13 22:02:00;;;;;;;;;;;26.60;49.20;;;;;;8359650;28;19975;-44
2021/08/13 22:06:00;;;;;;;;;;;26.50;49.20;;;;;;8368948;28;19916;-44
2021/08/13 22:10:01;;;;;;;;;;;26.50;49.20;;;;;;8368339;28;20304;-44
2021/08/13 22:14:01;;;;;;;;;;;26.50;49.30;;;;;;8368114;28;20293;-44
2021/08/13 22:18:02;;;;;;;;;;;26.50;49.30;;;;;;8367941;28;19920;-44
2021/08/13 22:22:02;;;;;;;;;;;26.50;49.30;;;;;;8368840;28;19924;-44
2021/08/13 22:26:03;;;;;;;;;;;26.50;49.30;;;;;;8368163;28;19917;-44
2021/08/13 22:30:05;;;;;;;;;;;26.50;49.30;;;;;;8367866;28;19962;-44
2021/08/13 22:34:05;;;;;;;;;;;26.50;49.30;;;;;;8367624;28;19929;-45
2021/08/13 22:38:06;;;;;;;;;;;26.50;49.30;;;;;;8367999;28;20303;-44
2021/08/13 22:42:07;;;;;;;;;;;26.50;49.30;;;;;;8368132;28;19924;-45
2021/08/13 22:46:07;;;;;;;;;;;26.50;49.30;;;;;;8367854;28;19916;-44
2021/08/13 22:50:08;;;;;;;;;;;26.40;49.30;;;;;;8367291;28;20382;-44
2021/08/13 22:54:08;;;;;;;;;;;26.50;49.40;;;;;;8366148;28;19925;-44
2021/08/13 22:58:09;;;;;;;;;;;26.50;49.40;;;;;;8367765;28;19924;-44
2021/08/13 23:02:09;;;;;;;;;;;26.40;49.40;;;;;;8366891;28;19963;-45
2021/08/13 23:06:10;;;;;;;;;;;26.40;49.40;;;;;;8366647;28;19916;-44
2021/08/13 23:10:12;;;;;;;;;;;26.40;49.40;;;;;;8366893;28;19920;-44
2021/08/13 23:14:13;;;;;;;;;;;26.40;49.40;;;;;;8366770;28;20301;-45
2021/08/13 23:18:13;;;;;;;;;;;26.40;49.40;;;;;;8366988;28;20014;-45
2021/08/13 23:22:14;;;;;;;;;;;26.40;49.40;;;;;;8366434;28;20007;-44